Ainsworth, Nebraska
Current Conditions -  °F | °C
As of 7:15 PM on Sunday 21 Dec 2014 (Local Time) from KANW Reporting Station
Overcast Overcast  
Wind Chill: 29°   Ceiling: 8500
Heat Index: 38°   Visibility: 10mi
Dew Point: 32°   Wind: 14mph
Humidity: 80%   Direction: 200°SSW
Pressure: 29.43"   Gusts: NA
Location:  42.55°N, 99.86°W
Report Text: KANW 220115Z AUTO 20012KT 10SM SCT060 OVC085 03/00 A2943 RMK AO2 T00310000
Loading
Personal Weather Stations






























Interactive Weather Map New forecast layout! Learn more

10-Day Weather Forecast

Advertisements
Track Severe Weather on mobile